createdAt,value
2023-01-29T00:00:07.208Z,101125.66
2023-01-29T00:03:09.320Z,101125.66
2023-01-29T00:06:25.222Z,101063.38
2023-01-29T00:09:35.269Z,101127.25
2023-01-29T00:12:50.240Z,101124.22
2023-01-29T00:15:59.245Z,101114.66
2023-01-29T00:19:08.219Z,101134.19
2023-01-29T00:22:30.244Z,101141.09
2023-01-29T00:25:38.856Z,101136.81
2023-01-29T00:28:53.279Z,101136.81
2023-01-29T00:32:02.032Z,101137.63
2023-01-29T00:35:10.259Z,101140.47
2023-01-29T00:38:19.236Z,101141.50
2023-01-29T00:41:28.244Z,101151.03
2023-01-29T00:44:36.797Z,101144.34
2023-01-29T00:47:51.259Z,101144.78
2023-01-29T00:51:08.226Z,101146.41
2023-01-29T00:54:23.227Z,101148.84
2023-01-29T00:57:33.614Z,101155.56
2023-01-29T01:00:42.281Z,101157.00
2023-01-29T01:03:51.126Z,101161.09
2023-01-29T01:07:00.222Z,101159.88
2023-01-29T01:10:20.217Z,101155.22
2023-01-29T01:13:29.302Z,101155.66
2023-01-29T01:16:38.277Z,101155.44
2023-01-29T01:19:46.868Z,101153.62
2023-01-29T01:23:08.198Z,101151.41
2023-01-29T01:26:17.198Z,101157.28
2023-01-29T01:29:25.818Z,101153.41
2023-01-29T01:32:40.249Z,101159.09
2023-01-29T01:35:42.235Z,101166.81
2023-01-29T01:38:57.231Z,101167.22
2023-01-29T01:42:11.642Z,101163.75
2023-01-29T01:45:43.231Z,101157.47
2023-01-29T01:48:48.051Z,101172.28
2023-01-29T01:52:03.198Z,101180.81
2023-01-29T01:55:21.229Z,101160.28
2023-01-29T01:58:31.989Z,101180.81
2023-01-29T02:01:49.288Z,101179.78
2023-01-29T02:04:51.917Z,101174.72
2023-01-29T02:08:07.214Z,101171.28
2023-01-29T02:11:09.587Z,101173.47
2023-01-29T02:14:24.199Z,101177.16
2023-01-29T02:17:35.270Z,101174.09
2023-01-29T02:21:10.507Z,101183.81
2023-01-29T02:24:59.188Z,101183.63
2023-01-29T02:28:36.221Z,101184.22
2023-01-29T02:31:50.533Z,101195.59
2023-01-29T02:35:14.206Z,101185.44
2023-01-29T02:38:28.625Z,101196.37
2023-01-29T02:42:03.215Z,101201.88
2023-01-29T02:45:42.250Z,101193.34
2023-01-29T02:49:11.214Z,101205.31
2023-01-29T02:52:35.207Z,101204.28
2023-01-29T02:55:49.774Z,101206.28
2023-01-29T03:11:08.193Z,101224.91
2023-01-29T03:14:32.189Z,101228.75
2023-01-29T03:17:40.366Z,101221.00
2023-01-29T03:21:04.179Z,101232.72
2023-01-29T03:28:11.185Z,101228.41
2023-01-29T03:31:28.292Z,101238.50
2023-01-29T03:34:53.266Z,101235.62
2023-01-29T03:42:25.209Z,101234.59
2023-01-29T03:46:15.205Z,101237.50
2023-01-29T03:49:50.187Z,101221.69
2023-01-29T03:53:30.183Z,101240.87
2023-01-29T03:56:41.794Z,101232.16
2023-01-29T04:00:22.200Z,101243.78
2023-01-29T04:03:45.285Z,101248.03
2023-01-29T04:06:58.519Z,101247.06
2023-01-29T04:10:13.311Z,101235.72
2023-01-29T04:13:24.945Z,101236.16
2023-01-29T04:16:44.267Z,101228.62
2023-01-29T04:20:00.207Z,101239.63
2023-01-29T04:23:24.092Z,101232.09
2023-01-29T04:27:00.193Z,101234.34
2023-01-29T04:30:24.214Z,101238.22
2023-01-29T04:33:49.494Z,101240.63
2023-01-29T04:37:13.201Z,101232.94
2023-01-29T04:40:44.176Z,101230.13
2023-01-29T04:44:06.167Z,101239.44
2023-01-29T04:47:50.502Z,101232.97
2023-01-29T04:51:30.191Z,101242.28
2023-01-29T04:55:16.185Z,101238.66
2023-01-29T04:58:43.709Z,101233.56
2023-01-29T05:01:59.254Z,101232.56
2023-01-29T05:05:09.601Z,101244.31
2023-01-29T05:08:33.211Z,101238.84
2023-01-29T05:11:43.200Z,101240.87
2023-01-29T05:14:54.399Z,101240.87
2023-01-29T05:18:10.196Z,101234.38
2023-01-29T05:21:19.183Z,101242.69
2023-01-29T05:24:35.183Z,101242.06
2023-01-29T05:27:58.182Z,101241.28
2023-01-29T05:31:13.311Z,101232.12
2023-01-29T05:34:22.033Z,101224.44
2023-01-29T05:37:30.191Z,101224.03
2023-01-29T05:40:46.219Z,101237.03
2023-01-29T05:43:48.147Z,101222.63
2023-01-29T05:47:03.173Z,101236.25
2023-01-29T05:50:13.319Z,101220.81
2023-01-29T05:53:29.738Z,101229.34
2023-01-29T05:56:38.163Z,101231.81
2023-01-29T05:59:53.163Z,101233.19
2023-01-29T06:02:55.259Z,101238.28
2023-01-29T06:06:10.155Z,101245.41
2023-01-29T06:09:18.207Z,101244.56
2023-01-29T06:12:27.715Z,101243.97
2023-01-29T06:19:28.195Z,101253.72
2023-01-29T06:22:43.176Z,101256.56
2023-01-29T06:29:36.168Z,101272.62
2023-01-29T06:45:22.234Z,101302.88
2023-01-29T06:48:31.029Z,101296.75
2023-01-29T06:51:46.167Z,101316.25
2023-01-29T06:54:55.632Z,101305.28
2023-01-29T07:05:47.194Z,101308.28
2023-01-29T07:08:56.761Z,101298.75
2023-01-29T07:12:11.165Z,101304.47
2023-01-29T07:15:27.149Z,101303.69
2023-01-29T07:18:35.802Z,101312.00
2023-01-29T07:21:50.168Z,101303.25
2023-01-29T07:24:52.179Z,101301.66
2023-01-29T07:28:08.190Z,101297.38
2023-01-29T07:31:30.339Z,101290.66
2023-01-29T07:34:45.153Z,101293.53
2023-01-29T07:37:53.873Z,101290.66
2023-01-29T07:41:03.223Z,101272.78
2023-01-29T07:44:18.158Z,101280.53
2023-01-29T07:51:49.163Z,101282.94
2023-01-29T07:55:04.173Z,101268.75
2023-01-29T07:58:13.043Z,101266.72
2023-01-29T08:01:22.176Z,101278.34
2023-01-29T08:04:37.167Z,101280.53
2023-01-29T08:07:51.485Z,101275.47
2023-01-29T08:11:12.184Z,101268.38
2023-01-29T08:14:20.717Z,101278.94
2023-01-29T08:17:29.193Z,101283.81
2023-01-29T08:20:45.162Z,101284.22
2023-01-29T08:23:47.168Z,101281.37
2023-01-29T08:27:02.176Z,101290.28
2023-01-29T08:30:05.939Z,101277.91
2023-01-29T08:33:39.954Z,101281.56
2023-01-29T08:36:55.164Z,101316.50
2023-01-29T08:40:04.206Z,101306.12
2023-01-29T08:43:20.163Z,101306.56
2023-01-29T08:46:28.170Z,101313.66
2023-01-29T08:49:36.772Z,101323.00
2023-01-29T08:52:52.156Z,101325.44
2023-01-29T08:55:54.568Z,101333.78
2023-01-29T08:59:09.183Z,101333.13
2023-01-29T09:02:24.162Z,101338.63
2023-01-29T09:05:26.116Z,101341.47
2023-01-29T09:08:41.136Z,101343.28
2023-01-29T09:11:43.007Z,101349.13
2023-01-29T09:14:58.151Z,101347.88
2023-01-29T09:18:10.189Z,101353.00
2023-01-29T09:21:19.124Z,101326.34
2023-01-29T09:24:28.166Z,101346.69
2023-01-29T09:27:37.363Z,101349.56
2023-01-29T09:30:53.246Z,101348.56
2023-01-29T09:34:08.434Z,101349.16
2023-01-29T09:37:23.162Z,101355.28
2023-01-29T09:40:54.153Z,101347.16
2023-01-29T09:44:17.151Z,101343.47
2023-01-29T09:47:21.302Z,101359.75
2023-01-29T09:50:46.136Z,101353.66
2023-01-29T09:54:28.145Z,101362.63
2023-01-29T09:58:15.160Z,101362.84
2023-01-29T10:01:59.466Z,101357.12
2023-01-29T10:05:24.062Z,101363.22
2023-01-29T10:09:06.143Z,101354.09
2023-01-29T10:12:59.209Z,101365.50
2023-01-29T10:16:29.125Z,101365.50
2023-01-29T10:19:52.164Z,101360.59
2023-01-29T10:23:30.629Z,101359.00
2023-01-29T10:26:40.190Z,101363.03
2023-01-29T10:29:53.352Z,101358.16
2023-01-29T10:33:24.122Z,101356.38
2023-01-29T10:36:36.285Z,101354.72
2023-01-29T10:39:52.128Z,101351.69
2023-01-29T10:43:06.125Z,101357.38
2023-01-29T10:46:27.176Z,101355.31
2023-01-29T10:50:06.138Z,101359.37
2023-01-29T10:53:36.145Z,101341.13
2023-01-29T10:57:03.128Z,101341.50
2023-01-29T11:15:50.135Z,101322.78
2023-01-29T11:23:01.121Z,101324.38
2023-01-29T11:30:07.199Z,101298.78
2023-01-29T11:37:45.175Z,101296.41
2023-01-29T11:41:21.115Z,101286.25
2023-01-29T11:44:31.489Z,101281.16
2023-01-29T11:48:18.130Z,101278.13
2023-01-29T11:52:06.249Z,101272.22
2023-01-29T11:55:40.962Z,101265.13
2023-01-29T12:03:28.129Z,101246.44
2023-01-29T12:06:48.166Z,101233.84
2023-01-29T12:09:59.031Z,101246.03
2023-01-29T12:13:12.149Z,101244.41
2023-01-29T12:16:50.256Z,101247.25
2023-01-29T12:20:19.392Z,101246.03
2023-01-29T12:23:39.190Z,101227.94
2023-01-29T12:27:01.134Z,101219.00
2023-01-29T12:30:34.391Z,101233.22
2023-01-29T12:34:10.515Z,101235.06
2023-01-29T12:37:51.172Z,101235.66
2023-01-29T12:41:11.120Z,101231.81
2023-01-29T12:44:33.545Z,101238.31
2023-01-29T12:47:54.128Z,101218.78
2023-01-29T12:51:18.794Z,101239.12
2023-01-29T12:54:40.119Z,101227.75
2023-01-29T12:58:04.433Z,101224.09
2023-01-29T13:01:31.125Z,101220.00
2023-01-29T13:04:55.109Z,101232.19
2023-01-29T13:12:23.129Z,101218.41
2023-01-29T13:15:46.207Z,101200.31
2023-01-29T13:19:06.139Z,101196.44
2023-01-29T13:22:31.121Z,101194.00
2023-01-29T13:25:47.119Z,101191.75
2023-01-29T13:32:48.446Z,101179.78
2023-01-29T13:40:09.130Z,101164.25
2023-01-29T13:43:28.441Z,101162.19
2023-01-29T13:46:41.884Z,101172.31
2023-01-29T13:50:14.124Z,101172.37
2023-01-29T13:53:34.205Z,101176.06
2023-01-29T13:57:07.574Z,101184.16
2023-01-29T14:00:28.432Z,101184.16
2023-01-29T14:04:03.674Z,101171.78
2023-01-29T14:07:51.093Z,101166.16
2023-01-29T14:11:15.753Z,101160.09
2023-01-29T14:14:55.117Z,101176.34
2023-01-29T14:18:13.161Z,101172.28
2023-01-29T14:21:29.726Z,101190.97
2023-01-29T14:28:37.126Z,101183.06
2023-01-29T14:32:07.445Z,101187.53
2023-01-29T14:35:34.108Z,101193.59
2023-01-29T14:38:51.829Z,101189.53
2023-01-29T14:42:03.122Z,101196.97
2023-01-29T14:45:35.168Z,101199.59
2023-01-29T14:48:48.832Z,101196.28
2023-01-29T14:51:58.393Z,101194.88
2023-01-29T14:55:36.583Z,101201.31
2023-01-29T14:58:49.210Z,101200.63
2023-01-29T15:02:01.111Z,101192.53
2023-01-29T15:05:36.381Z,101205.28
2023-01-29T15:09:06.129Z,101193.75
2023-01-29T15:12:33.167Z,101195.75
2023-01-29T15:16:09.157Z,101200.63
2023-01-29T15:19:28.876Z,101192.44
2023-01-29T15:22:51.115Z,101187.00
2023-01-29T15:26:06.355Z,101188.38
2023-01-29T15:29:31.077Z,101183.69
2023-01-29T15:32:48.051Z,101183.91
2023-01-29T15:36:11.479Z,101179.81
2023-01-29T15:39:23.288Z,101176.34
2023-01-29T15:42:53.118Z,101181.03
2023-01-29T15:46:17.385Z,101190.53
2023-01-29T15:49:46.469Z,101188.06
2023-01-29T15:52:58.322Z,101195.31
2023-01-29T15:56:08.102Z,101194.94
2023-01-29T15:59:29.084Z,101192.31
2023-01-29T16:06:47.111Z,101204.41
2023-01-29T16:10:06.181Z,101199.97
2023-01-29T16:13:48.172Z,101185.41
2023-01-29T16:17:04.562Z,101198.25
2023-01-29T16:20:38.511Z,101205.38
2023-01-29T16:23:43.693Z,101202.69
2023-01-29T16:39:12.344Z,101223.69
2023-01-29T16:42:32.415Z,101232.63
2023-01-29T16:45:41.929Z,101227.34
2023-01-29T16:48:58.531Z,101228.53
2023-01-29T16:52:41.498Z,101231.16
2023-01-29T16:55:59.094Z,101233.13
2023-01-29T16:59:30.185Z,101235.94
2023-01-29T17:02:46.094Z,101233.69
2023-01-29T17:05:49.875Z,101234.75
2023-01-29T17:09:08.467Z,101232.94
2023-01-29T17:12:26.461Z,101237.37
2023-01-29T17:15:43.621Z,101231.50
2023-01-29T17:18:53.081Z,101230.41
2023-01-29T17:22:09.085Z,101230.88
2023-01-29T17:29:10.505Z,101221.47
2023-01-29T17:32:20.009Z,101220.53
2023-01-29T17:35:42.541Z,101216.63
2023-01-29T17:38:51.806Z,101212.00
2023-01-29T17:42:03.551Z,101208.56
2023-01-29T17:45:14.044Z,101195.53
2023-01-29T17:48:33.556Z,101197.19
2023-01-29T17:51:51.927Z,101200.53
2023-01-29T17:55:01.418Z,101191.03
2023-01-29T17:58:18.247Z,101185.78
2023-01-29T18:01:34.616Z,101185.16
2023-01-29T18:04:44.103Z,101179.03
2023-01-29T18:07:54.530Z,101177.13
2023-01-29T18:11:04.276Z,101179.13
2023-01-29T18:14:15.730Z,101177.53
2023-01-29T18:17:32.632Z,101178.34
2023-01-29T18:20:45.096Z,101170.47
2023-01-29T18:23:54.496Z,101172.87
2023-01-29T18:27:12.485Z,101170.25
2023-01-29T18:30:22.621Z,101163.75
2023-01-29T18:33:44.418Z,101154.38
2023-01-29T18:37:01.076Z,101162.25
2023-01-29T18:40:11.401Z,101160.41
2023-01-29T18:43:20.979Z,101143.69
2023-01-29T18:46:37.459Z,101155.56
2023-01-29T18:49:48.084Z,101166.19
2023-01-29T18:52:58.016Z,101166.63
2023-01-29T18:56:15.067Z,101171.28
2023-01-29T18:59:32.449Z,101169.63
2023-01-29T19:02:43.044Z,101168.03
2023-01-29T19:05:59.541Z,101163.84
2023-01-29T19:09:09.505Z,101163.31
2023-01-29T19:12:28.644Z,101166.56
2023-01-29T19:15:48.070Z,101168.47
2023-01-29T19:18:57.619Z,101162.66
2023-01-29T19:22:13.533Z,101160.72
2023-01-29T19:25:24.541Z,101146.16
2023-01-29T19:28:34.123Z,101152.84
2023-01-29T19:31:51.050Z,101156.53
2023-01-29T19:35:08.808Z,101156.91
2023-01-29T19:38:21.700Z,101149.97
2023-01-29T19:41:38.524Z,101156.31
2023-01-29T19:44:42.418Z,101149.97
2023-01-29T19:47:59.115Z,101143.72
2023-01-29T19:51:13.526Z,101143.31
2023-01-29T19:54:23.795Z,101141.72
2023-01-29T19:57:42.057Z,101137.84
2023-01-29T20:00:44.832Z,101149.53
2023-01-29T20:04:04.271Z,101149.97
2023-01-29T20:07:14.039Z,101148.72
2023-01-29T20:14:22.041Z,101139.19
2023-01-29T20:17:32.068Z,101133.69
2023-01-29T20:20:41.518Z,101142.56
2023-01-29T20:23:59.494Z,101145.56
2023-01-29T20:27:02.355Z,101128.34
2023-01-29T20:30:19.748Z,101126.19
2023-01-29T20:33:29.537Z,101124.44
2023-01-29T20:36:44.658Z,101123.97
2023-01-29T20:40:01.442Z,101113.09
2023-01-29T20:54:07.550Z,101123.69
2023-01-29T21:13:02.419Z,101127.88
2023-01-29T21:16:18.449Z,101127.63
2023-01-29T21:19:28.092Z,101137.66
2023-01-29T21:22:37.935Z,101138.84
2023-01-29T21:25:54.323Z,101146.09
2023-01-29T21:29:03.601Z,101153.81
2023-01-29T21:32:18.389Z,101144.03
2023-01-29T21:35:40.132Z,101152.53
2023-01-29T21:38:49.152Z,101146.09
2023-01-29T21:42:04.369Z,101146.50
2023-01-29T21:45:07.537Z,101144.44
2023-01-29T21:48:22.024Z,101147.84
2023-01-29T21:51:38.020Z,101143.25
2023-01-29T21:54:47.138Z,101129.66
2023-01-29T21:58:02.026Z,101142.00
2023-01-29T22:01:35.162Z,101136.62
2023-01-29T22:04:39.101Z,101137.25
2023-01-29T22:11:58.072Z,101125.31
2023-01-29T22:15:14.030Z,101115.00
2023-01-29T22:18:22.849Z,101121.97
2023-01-29T22:21:30.989Z,101110.84
2023-01-29T22:24:39.582Z,101103.50
2023-01-29T22:27:54.011Z,101095.88
2023-01-29T22:31:11.012Z,101091.78
2023-01-29T22:34:32.992Z,101091.69
2023-01-29T22:37:48.057Z,101090.31
2023-01-29T22:41:04.000Z,101091.56
2023-01-29T22:44:13.020Z,101077.25
2023-01-29T22:47:28.028Z,101074.63
2023-01-29T22:50:44.043Z,101071.97
2023-01-29T22:54:02.025Z,101068.19
2023-01-29T22:57:13.172Z,101069.00
2023-01-29T23:00:28.036Z,101074.63
2023-01-29T23:03:30.924Z,101063.69
2023-01-29T23:06:45.984Z,101059.25
2023-01-29T23:09:55.229Z,101066.50
2023-01-29T23:13:04.032Z,101071.75
2023-01-29T23:16:21.054Z,101069.75
2023-01-29T23:19:23.135Z,101053.16
2023-01-29T23:22:38.057Z,101057.87
2023-01-29T23:25:39.980Z,101065.38
2023-01-29T23:28:55.019Z,101058.47
2023-01-29T23:32:03.812Z,101051.59
2023-01-29T23:35:19.037Z,101046.34
2023-01-29T23:38:34.024Z,101036.66
2023-01-29T23:41:36.197Z,101033.34
2023-01-29T23:44:51.041Z,101030.81
2023-01-29T23:47:59.651Z,101036.47
2023-01-29T23:51:13.996Z,101027.72
2023-01-29T23:54:16.571Z,101032.06
2023-01-29T23:57:30.994Z,101025.56
